createdAt,value
2024-05-09T00:02:13.840Z,50.5
2024-05-09T00:07:44.336Z,50.5
2024-05-09T00:13:13.790Z,50.5
2024-05-09T00:18:44.355Z,50.5
2024-05-09T00:24:14.743Z,50.5
2024-05-09T00:29:45.186Z,50.5
2024-05-09T00:35:15.711Z,50.5
2024-05-09T00:40:45.285Z,50.5
2024-05-09T00:46:15.671Z,50.5
2024-05-09T00:51:46.129Z,50
2024-05-09T00:57:15.632Z,50.5
2024-05-09T01:02:58.627Z,50.5
2024-05-09T01:08:16.776Z,50.5
2024-05-09T01:13:46.099Z,50
2024-05-09T01:19:16.643Z,50
2024-05-09T01:24:47.036Z,50
2024-05-09T01:30:21.030Z,50.5
2024-05-09T01:35:47.002Z,50
2024-05-09T01:41:16.548Z,50.5
2024-05-09T01:46:47.008Z,50
2024-05-09T01:52:17.446Z,50
2024-05-09T01:57:45.989Z,50.5
2024-05-09T02:03:17.804Z,50.5
2024-05-09T02:08:46.922Z,50.5
2024-05-09T02:14:16.529Z,50.5
2024-05-09T02:25:17.480Z,50
2024-05-09T02:30:47.934Z,50.5
2024-05-09T02:36:17.419Z,50
2024-05-09T02:41:47.963Z,50
2024-05-09T02:47:17.487Z,50
2024-05-09T02:52:47.899Z,50
2024-05-09T02:58:18.347Z,50
2024-05-09T03:03:47.960Z,50
2024-05-09T03:09:18.325Z,50
2024-05-09T03:14:48.819Z,50
2024-05-09T03:20:23.765Z,50
2024-05-09T03:25:48.801Z,50
2024-05-09T03:31:18.260Z,50
2024-05-09T03:36:48.730Z,50
2024-05-09T03:47:49.015Z,50
2024-05-09T03:53:19.374Z,50
2024-05-09T03:58:49.764Z,50
2024-05-09T04:04:19.306Z,50
2024-05-09T04:09:49.719Z,50.5
2024-05-09T04:15:20.193Z,50.5
2024-05-09T04:20:49.797Z,50.5
2024-05-09T04:26:20.206Z,50
2024-05-09T04:31:50.681Z,49.5
2024-05-09T04:37:20.121Z,50
2024-05-09T04:42:55.355Z,50
2024-05-09T04:48:21.278Z,49.5
2024-05-09T04:53:50.610Z,49.5
2024-05-09T04:59:21.063Z,49.5
2024-05-09T05:04:51.860Z,49.5
2024-05-09T05:10:25.548Z,49.5
2024-05-09T05:15:55.070Z,49.5
2024-05-09T05:21:21.281Z,49.5
2024-05-09T05:26:51.568Z,49.5
2024-05-09T05:32:22.296Z,49.5
2024-05-09T05:37:52.527Z,49.5
2024-05-09T05:43:22.021Z,49.5
2024-05-09T05:48:52.589Z,49.5
2024-05-09T05:59:52.440Z,49.5
2024-05-09T06:05:24.258Z,49.5
2024-05-09T06:10:53.541Z,49.5
2024-05-09T06:16:22.908Z,49.5
2024-05-09T06:21:53.346Z,49.5
2024-05-09T06:27:22.850Z,49.5
2024-05-09T06:32:53.495Z,49.5
2024-05-09T06:38:23.872Z,49.5
2024-05-09T06:43:53.450Z,49.5
2024-05-09T06:49:23.918Z,49.5
2024-05-09T06:54:54.257Z,49
2024-05-09T07:00:30.749Z,49
2024-05-09T07:05:54.267Z,49
2024-05-09T07:11:24.740Z,49
2024-05-09T07:16:54.300Z,49
2024-05-09T07:22:24.659Z,49
2024-05-09T07:27:55.149Z,49
2024-05-09T07:33:25.058Z,49
2024-05-09T07:38:55.120Z,49
2024-05-09T07:44:25.659Z,49
2024-05-09T08:11:56.037Z,49
2024-05-09T08:17:26.703Z,49
2024-05-09T08:22:55.958Z,49
2024-05-09T08:28:27.204Z,49
2024-05-09T08:33:56.061Z,49
2024-05-09T08:44:56.874Z,49
2024-05-09T08:50:32.525Z,49
2024-05-09T09:01:27.474Z,49
2024-05-09T09:06:58.303Z,49
2024-05-09T09:12:27.383Z,49
2024-05-09T09:17:57.918Z,49
2024-05-09T09:23:27.246Z,49
2024-05-09T09:28:57.730Z,49
2024-05-09T09:34:28.371Z,49
2024-05-09T09:39:57.769Z,48.5
2024-05-09T09:45:28.203Z,48.5
2024-05-09T09:50:58.631Z,48.5
2024-05-09T09:56:28.109Z,48.5
2024-05-09T10:01:58.882Z,48.5
2024-05-09T10:07:29.113Z,48.5
2024-05-09T10:12:58.719Z,48.5
2024-05-09T10:18:31.179Z,48
2024-05-09T10:23:59.519Z,48
2024-05-09T10:29:28.998Z,48
2024-05-09T10:34:59.499Z,48
2024-05-09T10:40:31.724Z,47.5
2024-05-09T10:47:05.594Z,47.5
2024-05-09T10:52:36.094Z,46.5
2024-05-09T10:58:06.513Z,46
2024-05-09T11:03:36.472Z,45.5
2024-05-09T11:09:06.459Z,45.5
2024-05-09T11:14:36.941Z,45.5
2024-05-09T11:25:36.891Z,45.5
2024-05-09T11:31:08.031Z,45.5
2024-05-09T11:36:36.880Z,45.5
2024-05-09T11:42:07.366Z,46
2024-05-09T11:47:37.889Z,46
2024-05-09T11:53:07.306Z,46
2024-05-09T11:58:37.774Z,46.5
2024-05-09T12:04:09.065Z,46.5
2024-05-09T12:09:37.832Z,46.5
2024-05-09T12:15:08.236Z,46.5
2024-05-09T12:20:40.126Z,46.5
2024-05-09T12:26:08.219Z,46.5
2024-05-09T12:31:38.728Z,46.5
2024-05-09T12:37:09.217Z,46.5
2024-05-09T12:42:38.736Z,46.5
2024-05-09T12:48:13.929Z,46.5
2024-05-09T12:53:39.613Z,46.5
2024-05-09T12:59:09.084Z,47
2024-05-09T13:04:46.466Z,47
2024-05-09T13:10:13.913Z,47
2024-05-09T13:15:39.670Z,47
2024-05-09T13:21:10.035Z,47
2024-05-09T13:26:40.535Z,47
2024-05-09T13:32:11.054Z,47
2024-05-09T13:37:40.493Z,47
2024-05-09T13:43:10.987Z,47
2024-05-09T13:48:41.642Z,47
2024-05-09T13:54:10.938Z,47.5
2024-05-09T14:00:49.191Z,47
2024-05-09T14:06:17.092Z,47
2024-05-09T14:11:47.591Z,47
2024-05-09T14:17:18.237Z,47
2024-05-09T14:22:47.600Z,47.5
2024-05-09T14:29:24.146Z,47.5
2024-05-09T14:34:54.685Z,47.5
2024-05-09T14:45:54.719Z,47.5
2024-05-09T14:51:25.067Z,47.5
2024-05-09T14:56:55.539Z,47.5
2024-05-09T15:02:25.198Z,47.5
2024-05-09T15:07:55.517Z,47.5
2024-05-09T15:13:26.252Z,47.5
2024-05-09T15:18:55.799Z,47
2024-05-09T15:24:25.944Z,47
2024-05-09T15:29:56.418Z,46
2024-05-09T15:35:25.986Z,46
2024-05-09T15:40:56.504Z,45.5
2024-05-09T15:46:26.905Z,45.5
2024-05-09T15:51:56.398Z,45.5
2024-05-09T15:57:26.866Z,45.5
2024-05-09T16:02:57.376Z,45.5
2024-05-09T16:08:26.823Z,46
2024-05-09T16:13:57.288Z,46
2024-05-09T16:19:38.664Z,46
2024-05-09T16:24:57.338Z,46.5
2024-05-09T16:30:34.128Z,46.5
2024-05-09T16:35:58.219Z,46.5
2024-05-09T16:41:27.714Z,47
2024-05-09T16:46:58.239Z,48
2024-05-09T16:52:28.690Z,48
2024-05-09T16:57:59.291Z,48.5
2024-05-09T17:03:29.741Z,49
2024-05-09T17:14:29.639Z,48.5
2024-05-09T17:20:00.254Z,48.5
2024-05-09T17:25:29.779Z,48.5
2024-05-09T17:31:00.252Z,48.5
2024-05-09T17:36:30.734Z,48.5
2024-05-09T17:42:04.002Z,48.5
2024-05-09T17:47:30.705Z,48.5
2024-05-09T17:53:01.174Z,48.5
2024-05-09T17:58:31.708Z,48.5
2024-05-09T18:04:01.324Z,48.5
2024-05-09T18:09:31.712Z,48.5
2024-05-09T18:15:02.189Z,48.5
2024-05-09T18:20:40.308Z,48.5
2024-05-09T18:26:02.180Z,48.5
2024-05-09T18:31:32.707Z,48.5
2024-05-09T18:37:04.449Z,48.5
2024-05-09T18:42:32.669Z,48.5
2024-05-09T18:48:03.258Z,48.5
2024-05-09T18:53:32.565Z,48.5
2024-05-09T18:59:03.102Z,48.5
2024-05-09T19:04:32.718Z,48.5
2024-05-09T19:10:03.406Z,48.5
2024-05-09T19:15:33.706Z,48.5
2024-05-09T19:21:03.978Z,48.5
2024-05-09T19:26:33.484Z,48.5
2024-05-09T19:32:04.063Z,48.5
2024-05-09T19:37:33.490Z,48.5
2024-05-09T19:43:05.593Z,48.5
2024-05-09T19:49:40.637Z,48.5
2024-05-09T19:55:10.131Z,49
2024-05-09T20:00:42.814Z,49
2024-05-09T20:06:10.953Z,49
2024-05-09T20:11:40.530Z,49.5
2024-05-09T20:17:10.947Z,49.5
2024-05-09T20:22:41.436Z,49.5
2024-05-09T20:28:11.315Z,49.5
2024-05-09T20:33:41.459Z,49.5
2024-05-09T20:44:41.360Z,49
2024-05-09T20:50:20.317Z,49
2024-05-09T20:55:41.485Z,49
2024-05-09T21:01:12.064Z,49
2024-05-09T21:06:41.464Z,49
2024-05-09T21:12:11.924Z,49
2024-05-09T21:17:42.485Z,49
2024-05-09T21:23:11.876Z,49
2024-05-09T21:28:42.346Z,49
2024-05-09T21:34:12.893Z,49
2024-05-09T21:39:42.328Z,49
2024-05-09T21:45:12.774Z,49
2024-05-09T21:50:43.330Z,49
2024-05-09T21:56:12.874Z,49
2024-05-09T22:01:43.468Z,49
2024-05-09T22:07:12.986Z,48.5
2024-05-09T22:12:43.396Z,48.5
2024-05-09T22:18:13.905Z,49
2024-05-09T22:23:43.310Z,49
2024-05-09T22:29:13.804Z,49
2024-05-09T22:34:44.484Z,49
2024-05-09T22:40:20.738Z,49
2024-05-09T22:45:44.543Z,49
2024-05-09T22:51:14.853Z,49
2024-05-09T22:56:44.373Z,49
2024-05-09T23:02:14.945Z,49
2024-05-09T23:07:45.333Z,49
2024-05-09T23:13:14.871Z,49
2024-05-09T23:18:45.422Z,49
2024-05-09T23:29:45.256Z,49
2024-05-09T23:35:15.717Z,49
2024-05-09T23:40:46.245Z,49
2024-05-09T23:46:15.705Z,49
2024-05-09T23:51:46.178Z,49
2024-05-09T23:57:15.672Z,49.5
